createdAt,value
2017-09-28T00:00:18.296Z,14.89
2017-09-28T00:01:18.370Z,14.88
2017-09-28T00:02:18.022Z,14.94
2017-09-28T00:03:18.361Z,14.94
2017-09-28T00:04:18.387Z,14.92
2017-09-28T00:05:18.413Z,14.91
2017-09-28T00:06:18.112Z,14.91
2017-09-28T00:07:18.485Z,14.88
2017-09-28T00:08:18.477Z,14.92
2017-09-28T00:09:18.178Z,14.91
2017-09-28T00:10:18.521Z,14.89
2017-09-28T00:11:34.134Z,14.84
2017-09-28T00:12:18.562Z,14.84
2017-09-28T00:13:33.179Z,14.73
2017-09-28T00:14:18.614Z,14.8
2017-09-28T00:15:33.221Z,14.78
2017-09-28T00:16:18.650Z,14.86
2017-09-28T00:17:18.360Z,14.83
2017-09-28T00:18:33.285Z,14.78
2017-09-28T00:19:18.719Z,14.8
2017-09-28T00:20:18.742Z,14.75
2017-09-28T00:21:18.761Z,14.77
2017-09-28T00:22:18.786Z,14.8
2017-09-28T00:23:18.810Z,14.73
2017-09-28T00:24:18.830Z,14.75
2017-09-28T00:25:18.539Z,14.75
2017-09-28T00:26:18.557Z,14.75
2017-09-28T00:27:33.488Z,14.8
2017-09-28T00:28:18.924Z,14.75
2017-09-28T00:29:18.942Z,14.72
2017-09-28T00:31:33.576Z,14.75
2017-09-28T00:32:19.018Z,14.81
2017-09-28T00:33:18.711Z,14.8
2017-09-28T00:34:19.094Z,14.73
2017-09-28T00:35:19.079Z,14.77
2017-09-28T00:36:19.103Z,14.73
2017-09-28T00:37:19.118Z,14.75
2017-09-28T00:38:18.820Z,14.78
2017-09-28T00:39:19.203Z,14.77
2017-09-28T00:40:19.186Z,14.73
2017-09-28T00:41:18.891Z,14.73
2017-09-28T00:42:19.228Z,14.73
2017-09-28T00:43:33.852Z,14.75
2017-09-28T00:44:18.954Z,14.73
2017-09-28T00:45:19.295Z,14.65
2017-09-28T00:46:18.997Z,14.75
2017-09-28T00:47:19.340Z,14.64
2017-09-28T00:48:33.953Z,14.64
2017-09-28T00:49:19.386Z,14.69
2017-09-28T00:50:19.408Z,14.62
2017-09-28T00:51:19.116Z,14.65
2017-09-28T00:52:19.448Z,14.61
2017-09-28T00:53:19.474Z,14.65
2017-09-28T00:55:19.520Z,14.68
2017-09-28T00:56:19.535Z,14.64
2017-09-28T00:57:19.563Z,14.7
2017-09-28T00:58:19.586Z,14.72
2017-09-28T00:59:34.195Z,14.65
2017-09-28T01:00:19.624Z,14.68
2017-09-28T01:01:34.241Z,14.68
2017-09-28T01:02:19.674Z,14.65
2017-09-28T01:03:19.693Z,14.7
2017-09-28T01:04:19.725Z,14.64
2017-09-28T01:05:19.419Z,14.64
2017-09-28T01:06:19.124Z,14.68
2017-09-28T01:07:19.464Z,14.61
2017-09-28T01:08:19.808Z,14.61
2017-09-28T01:09:19.829Z,14.65
2017-09-28T01:10:19.849Z,14.61
2017-09-28T01:11:34.469Z,14.61
2017-09-28T01:12:19.894Z,14.64
2017-09-28T01:13:19.916Z,14.58
2017-09-28T01:14:34.529Z,14.61
2017-09-28T01:15:19.960Z,14.6
2017-09-28T01:16:34.575Z,14.64
2017-09-28T01:17:20.004Z,14.64
2017-09-28T01:18:20.027Z,14.58
2017-09-28T01:19:20.049Z,14.58
2017-09-28T01:21:20.090Z,14.62
2017-09-28T01:22:19.795Z,14.61
2017-09-28T01:23:20.135Z,14.58
2017-09-28T01:24:19.522Z,14.54
2017-09-28T01:25:20.185Z,14.65
2017-09-28T01:26:19.887Z,14.64
2017-09-28T01:27:20.230Z,14.61
2017-09-28T01:28:20.247Z,14.61
2017-09-28T01:29:20.265Z,14.65
2017-09-28T01:30:20.289Z,14.62
2017-09-28T01:31:34.906Z,14.64
2017-09-28T01:32:20.336Z,14.58
2017-09-28T01:33:34.949Z,14.58
2017-09-28T01:34:20.062Z,14.65
2017-09-28T01:35:20.400Z,14.64
2017-09-28T01:36:20.424Z,14.61
2017-09-28T01:38:20.149Z,14.58
2017-09-28T01:39:20.498Z,14.62
2017-09-28T01:40:20.512Z,14.62
2017-09-28T01:41:20.534Z,14.6
2017-09-28T01:42:20.559Z,14.65
2017-09-28T01:43:20.585Z,14.64
2017-09-28T01:44:20.605Z,14.57
2017-09-28T01:45:20.303Z,14.55
2017-09-28T01:46:35.235Z,14.62
2017-09-28T01:47:20.669Z,14.65
2017-09-28T01:48:20.687Z,14.58
2017-09-28T01:49:35.302Z,14.61
2017-09-28T01:50:35.323Z,14.64
2017-09-28T01:51:20.754Z,14.51
2017-09-28T01:52:20.457Z,14.6
2017-09-28T01:53:20.800Z,14.61
2017-09-28T01:55:20.849Z,14.57
2017-09-28T01:56:20.868Z,14.6
2017-09-28T01:57:20.888Z,14.65
2017-09-28T01:58:20.907Z,14.61
2017-09-28T01:59:20.931Z,14.54
2017-09-28T02:00:20.967Z,14.51
2017-09-28T02:01:20.973Z,14.54
2017-09-28T02:02:35.588Z,14.55
2017-09-28T02:03:21.019Z,14.55
2017-09-28T02:04:21.047Z,14.54
2017-09-28T02:05:35.655Z,14.5
2017-09-28T02:06:35.675Z,14.61
2017-09-28T02:07:21.106Z,14.55
2017-09-28T02:08:21.134Z,14.54
2017-09-28T02:09:21.154Z,14.62
2017-09-28T02:10:20.854Z,14.6
2017-09-28T02:11:21.196Z,14.51
2017-09-28T02:12:21.215Z,14.55
2017-09-28T02:13:21.243Z,14.54
2017-09-28T02:14:20.944Z,14.46
2017-09-28T02:15:21.283Z,14.46
2017-09-28T02:16:20.987Z,14.46
2017-09-28T02:17:21.330Z,14.45
2017-09-28T02:18:35.943Z,14.45
2017-09-28T02:19:21.374Z,14.39
2017-09-28T02:20:21.397Z,14.4
2017-09-28T02:21:21.416Z,14.46
2017-09-28T02:22:36.033Z,14.45
2017-09-28T02:24:21.169Z,14.46
2017-09-28T02:26:21.523Z,14.33
2017-09-28T02:27:21.546Z,14.32
2017-09-28T02:28:21.250Z,14.33
2017-09-28T02:29:21.273Z,14.29
2017-09-28T02:30:21.615Z,14.28
2017-09-28T02:31:21.635Z,14.29
2017-09-28T02:32:21.662Z,14.18
2017-09-28T02:33:21.680Z,14.17
2017-09-28T02:34:36.299Z,14.18
2017-09-28T02:35:21.718Z,14.2
2017-09-28T02:36:21.748Z,14.17
2017-09-28T02:39:21.810Z,14.24
2017-09-28T02:40:21.832Z,14.18
2017-09-28T02:41:21.852Z,14.14
2017-09-28T02:42:21.883Z,14.18
2017-09-28T02:43:21.899Z,14.18
2017-09-28T02:44:21.922Z,14.22
2017-09-28T02:45:21.943Z,14.2
2017-09-28T02:46:21.964Z,14.21
2017-09-28T02:47:21.985Z,14.21
2017-09-28T02:48:22.009Z,14.28
2017-09-28T02:49:36.620Z,14.21
2017-09-28T02:50:22.059Z,14.24
2017-09-28T02:52:22.100Z,14.25
2017-09-28T02:53:22.121Z,14.22
2017-09-28T02:55:36.753Z,14.2
2017-09-28T02:56:22.191Z,14.24
2017-09-28T02:57:22.204Z,14.2
2017-09-28T02:58:22.228Z,14.18
2017-09-28T02:59:22.251Z,14.2
2017-09-28T03:00:22.273Z,14.21
2017-09-28T03:01:22.293Z,14.27
2017-09-28T03:02:22.315Z,14.2
2017-09-28T03:03:22.336Z,14.2
2017-09-28T03:04:22.361Z,14.2
2017-09-28T03:05:22.384Z,14.18
2017-09-28T03:06:22.412Z,14.22
2017-09-28T03:07:22.426Z,14.18
2017-09-28T03:08:22.447Z,14.18
2017-09-28T03:09:37.059Z,14.15
2017-09-28T03:10:22.492Z,14.14
2017-09-28T03:11:22.515Z,14.28
2017-09-28T03:12:22.533Z,14.17
2017-09-28T03:13:22.562Z,14.24
2017-09-28T03:14:22.580Z,14.18
2017-09-28T03:15:22.603Z,14.22
2017-09-28T03:16:22.623Z,14.18
2017-09-28T03:17:22.642Z,14.22
2017-09-28T03:18:22.669Z,14.24
2017-09-28T03:19:22.371Z,14.22
2017-09-28T03:20:22.713Z,14.15
2017-09-28T03:21:37.321Z,14.1
2017-09-28T03:22:37.348Z,14.2
2017-09-28T03:23:22.777Z,14.12
2017-09-28T03:24:37.387Z,14.12
2017-09-28T03:25:22.818Z,14.1
2017-09-28T03:26:22.840Z,14.14
2017-09-28T03:27:22.863Z,14.09
2017-09-28T03:28:22.885Z,14.09
2017-09-28T03:29:22.904Z,14.14
2017-09-28T03:30:22.941Z,14.06
2017-09-28T03:31:22.629Z,14.06
2017-09-28T03:32:22.977Z,14.1
2017-09-28T03:33:22.672Z,14.04
2017-09-28T03:34:23.016Z,14.07
2017-09-28T03:35:23.040Z,14.09
2017-09-28T03:36:22.741Z,14.04
2017-09-28T03:37:37.676Z,13.92
2017-09-28T03:38:23.099Z,14.02
2017-09-28T03:39:22.807Z,14.03
2017-09-28T03:40:23.144Z,13.97
2017-09-28T03:41:37.758Z,14
2017-09-28T03:42:23.191Z,13.97
2017-09-28T03:43:23.209Z,13.95
2017-09-28T03:44:23.231Z,13.96
2017-09-28T03:45:23.257Z,13.97
2017-09-28T03:46:23.274Z,13.88
2017-09-28T03:47:22.978Z,13.95
2017-09-28T03:48:23.321Z,13.88
2017-09-28T03:49:23.343Z,13.91
2017-09-28T03:50:23.364Z,13.88
2017-09-28T03:51:23.385Z,13.91
2017-09-28T03:52:23.414Z,13.79
2017-09-28T03:53:38.022Z,13.77
2017-09-28T03:54:23.449Z,13.79
2017-09-28T03:55:23.477Z,13.77
2017-09-28T03:56:23.496Z,13.79
2017-09-28T03:57:23.515Z,13.78
2017-09-28T03:58:23.221Z,13.73
2017-09-28T04:00:23.590Z,13.77
2017-09-28T04:01:23.286Z,13.71
2017-09-28T04:02:23.626Z,13.66
2017-09-28T04:03:23.650Z,13.64
2017-09-28T04:04:23.667Z,13.64
2017-09-28T04:05:23.689Z,13.64
2017-09-28T04:06:23.711Z,13.63
2017-09-28T04:07:23.734Z,13.69
2017-09-28T04:08:23.757Z,13.7
2017-09-28T04:09:38.048Z,13.64
2017-09-28T04:10:23.797Z,13.62
2017-09-28T04:11:23.819Z,13.62
2017-09-28T04:12:23.840Z,13.62
2017-09-28T04:13:23.861Z,13.62
2017-09-28T04:14:23.895Z,13.67
2017-09-28T04:15:23.588Z,13.69
2017-09-28T04:17:23.640Z,13.62
2017-09-28T04:19:23.994Z,13.67
2017-09-28T04:20:24.022Z,13.6
2017-09-28T04:21:23.718Z,13.66
2017-09-28T04:22:24.058Z,13.59
2017-09-28T04:23:24.078Z,13.62
2017-09-28T04:24:38.693Z,13.67
2017-09-28T04:25:23.803Z,13.62
2017-09-28T04:26:24.146Z,13.59
2017-09-28T04:27:23.850Z,13.63
2017-09-28T04:28:24.190Z,13.62
2017-09-28T04:29:23.894Z,13.6
2017-09-28T04:30:24.231Z,13.62
2017-09-28T04:31:24.300Z,13.7
2017-09-28T04:32:24.276Z,13.6
2017-09-28T04:34:24.321Z,13.57
2017-09-28T04:35:24.348Z,13.49
2017-09-28T04:36:24.370Z,13.59
2017-09-28T04:37:24.381Z,13.57
2017-09-28T04:38:24.406Z,13.62
2017-09-28T04:39:24.425Z,13.55
2017-09-28T04:40:24.450Z,13.63
2017-09-28T04:41:39.064Z,13.52
2017-09-28T04:42:24.489Z,13.59
2017-09-28T04:43:24.518Z,13.57
2017-09-28T04:44:24.536Z,13.63
2017-09-28T04:45:24.241Z,13.55
2017-09-28T04:46:24.260Z,13.62
2017-09-28T04:47:24.600Z,13.54
2017-09-28T04:49:24.646Z,13.54
2017-09-28T04:50:24.666Z,13.54
2017-09-28T04:51:24.689Z,13.46
2017-09-28T04:52:24.383Z,13.54
2017-09-28T04:53:24.408Z,13.57
2017-09-28T04:54:24.430Z,13.54
2017-09-28T04:55:24.769Z,13.51
2017-09-28T04:56:39.063Z,13.46
2017-09-28T04:57:24.814Z,13.54
2017-09-28T04:58:24.847Z,13.49
2017-09-28T04:59:24.858Z,13.51
2017-09-28T05:00:39.468Z,13.48
2017-09-28T05:01:24.578Z,13.54
2017-09-28T05:02:39.509Z,13.62
2017-09-28T05:03:24.623Z,13.42
2017-09-28T05:05:24.669Z,13.46
2017-09-28T05:06:25.008Z,13.45
2017-09-28T05:07:25.027Z,13.48
2017-09-28T05:08:25.048Z,13.33
2017-09-28T05:09:24.758Z,13.41
2017-09-28T05:10:24.775Z,13.45
2017-09-28T05:11:25.108Z,13.38
2017-09-28T05:12:39.729Z,13.3
2017-09-28T05:13:25.155Z,13.29
2017-09-28T05:14:25.179Z,13.38
2017-09-28T05:15:24.879Z,13.36
2017-09-28T05:16:25.223Z,13.32
2017-09-28T05:17:39.833Z,13.22
2017-09-28T05:18:25.294Z,13.26
2017-09-28T05:19:24.966Z,13.23
2017-09-28T05:20:25.310Z,13.17
2017-09-28T05:21:25.332Z,13.17
2017-09-28T05:22:25.029Z,13.2
2017-09-28T05:23:25.380Z,13.23
2017-09-28T05:25:25.413Z,13.12
2017-09-28T05:26:25.436Z,13.25
2017-09-28T05:27:25.455Z,13.2
2017-09-28T05:28:40.070Z,13.17
2017-09-28T05:29:25.502Z,13.15
2017-09-28T05:30:39.795Z,13.17
2017-09-28T05:31:40.133Z,13.15
2017-09-28T05:32:40.154Z,13.14
2017-09-28T05:33:25.586Z,13.15
2017-09-28T05:34:25.606Z,13.11
2017-09-28T05:35:25.308Z,13.11
2017-09-28T05:36:25.652Z,13.11
2017-09-28T05:37:25.720Z,13.14
2017-09-28T05:38:25.693Z,13.17
2017-09-28T05:39:25.717Z,13.17
2017-09-28T05:40:25.739Z,13.01
2017-09-28T05:41:25.761Z,13.05
2017-09-28T05:42:25.777Z,13.19
2017-09-28T05:43:25.795Z,13.15
2017-09-28T05:44:40.412Z,13.14
2017-09-28T05:45:25.841Z,13.17
2017-09-28T05:46:40.457Z,13.12
2017-09-28T05:47:25.889Z,13.15
2017-09-28T05:48:40.498Z,13.04
2017-09-28T05:49:25.932Z,13.08
2017-09-28T05:50:25.950Z,13.14
2017-09-28T05:51:25.974Z,13.08
2017-09-28T05:52:26.001Z,13.14
2017-09-28T05:53:26.013Z,13.17
2017-09-28T05:54:26.035Z,13.04
2017-09-28T05:55:26.055Z,13
2017-09-28T05:56:25.767Z,13.03
2017-09-28T05:57:26.104Z,13.07
2017-09-28T05:58:25.804Z,12.96
2017-09-28T05:59:40.738Z,13.05
2017-09-28T06:00:40.761Z,13.04
2017-09-28T06:01:26.185Z,13.01
2017-09-28T06:02:25.891Z,13.01
2017-09-28T06:03:26.281Z,13
2017-09-28T06:05:26.275Z,12.9
2017-09-28T06:06:26.296Z,12.89
2017-09-28T06:07:26.330Z,12.89
2017-09-28T06:08:26.020Z,12.9
2017-09-28T06:09:26.356Z,12.86
2017-09-28T06:10:26.381Z,12.89
2017-09-28T06:11:26.410Z,12.87
2017-09-28T06:12:26.429Z,12.93
2017-09-28T06:13:26.128Z,12.92
2017-09-28T06:14:26.470Z,12.9
2017-09-28T06:15:26.171Z,12.92
2017-09-28T06:16:26.513Z,12.96
2017-09-28T06:17:26.566Z,12.93
2017-09-28T06:18:41.145Z,12.93
2017-09-28T06:19:26.608Z,13.03
2017-09-28T06:20:26.600Z,13
2017-09-28T06:21:26.622Z,12.95
2017-09-28T06:24:26.684Z,13.04
2017-09-28T06:25:26.708Z,13.01
2017-09-28T06:26:26.738Z,13.01
2017-09-28T06:27:26.430Z,12.97
2017-09-28T06:28:26.769Z,13
2017-09-28T06:29:26.791Z,12.95
2017-09-28T06:30:26.814Z,12.92
2017-09-28T06:31:41.428Z,12.97
2017-09-28T06:32:26.859Z,12.97
2017-09-28T06:33:41.151Z,12.97
2017-09-28T06:34:26.904Z,13.01
2017-09-28T06:35:41.512Z,13.05
2017-09-28T06:36:26.627Z,13.14
2017-09-28T06:37:26.966Z,13.03
2017-09-28T06:38:26.990Z,13.05
2017-09-28T06:39:26.693Z,13.15
2017-09-28T06:40:27.031Z,13.11
2017-09-28T06:41:27.055Z,13.14
2017-09-28T06:42:27.075Z,13.12
2017-09-28T06:43:27.094Z,13.03
2017-09-28T06:44:27.119Z,13.12
2017-09-28T06:45:27.140Z,13.15
2017-09-28T06:46:27.170Z,13.19
2017-09-28T06:47:41.774Z,13.33
2017-09-28T06:48:26.887Z,13.23
2017-09-28T06:49:27.227Z,13.2
2017-09-28T06:50:27.248Z,13.26
2017-09-28T06:51:27.278Z,13.38
2017-09-28T06:53:27.314Z,13.36
2017-09-28T06:54:27.338Z,13.44
2017-09-28T06:55:27.359Z,13.54
2017-09-28T06:56:27.381Z,13.46
2017-09-28T06:57:27.401Z,13.52
2017-09-28T06:58:27.429Z,13.57
2017-09-28T06:59:27.443Z,13.54
2017-09-28T07:00:27.470Z,13.57
2017-09-28T07:01:27.491Z,13.57
2017-09-28T07:02:27.521Z,13.62
2017-09-28T07:04:27.557Z,13.63
2017-09-28T07:05:27.588Z,13.73
2017-09-28T07:06:27.281Z,13.92
2017-09-28T07:07:27.625Z,14.22
2017-09-28T07:08:27.642Z,14.36
2017-09-28T07:09:27.673Z,14.55
2017-09-28T07:11:27.723Z,14.72
2017-09-28T07:12:27.740Z,15.03
2017-09-28T07:13:27.759Z,15.23
2017-09-28T07:14:27.785Z,15.21
2017-09-28T07:15:27.808Z,15.29
2017-09-28T07:16:27.835Z,15.28
2017-09-28T07:17:27.859Z,15.34
2017-09-28T07:18:27.882Z,15.5
2017-09-28T07:19:42.499Z,15.47
2017-09-28T07:20:27.613Z,15.53
2017-09-28T07:21:27.961Z,15.75
2017-09-28T07:22:28.017Z,15.82
2017-09-28T07:23:28.008Z,15.96
2017-09-28T07:24:28.029Z,15.92
2017-09-28T07:26:28.076Z,16.01
2017-09-28T07:27:27.788Z,16.25
2017-09-28T07:28:28.130Z,16.42
2017-09-28T07:29:27.840Z,16.49
2017-09-28T07:30:27.861Z,16.48
2017-09-28T07:31:27.888Z,16.58
2017-09-28T07:32:28.234Z,16.64
2017-09-28T07:33:27.622Z,16.86
2017-09-28T07:34:42.883Z,16.97
2017-09-28T07:35:27.996Z,17
2017-09-28T07:36:28.335Z,17
2017-09-28T07:38:42.979Z,17.19
2017-09-28T07:39:28.415Z,17.33
2017-09-28T07:40:28.438Z,17.4
2017-09-28T07:41:28.468Z,17.51
2017-09-28T07:42:28.494Z,17.58
2017-09-28T07:43:28.517Z,17.55
2017-09-28T07:44:28.553Z,17.66
2017-09-28T07:45:28.574Z,17.64
2017-09-28T07:46:28.596Z,17.51
2017-09-28T07:47:28.624Z,17.46
2017-09-28T07:48:28.652Z,17.4
2017-09-28T07:49:28.678Z,17.43
2017-09-28T07:50:28.704Z,17.48
2017-09-28T07:51:43.324Z,17.3
2017-09-28T07:52:43.030Z,17.49
2017-09-28T07:53:28.463Z,17.49
2017-09-28T07:54:28.811Z,17.31
2017-09-28T07:55:28.838Z,17.15
2017-09-28T07:57:28.252Z,16.81
2017-09-28T07:58:28.910Z,16.75
2017-09-28T07:59:28.620Z,16.76
2017-09-28T08:00:28.969Z,16.73
2017-09-28T08:01:28.996Z,16.82
2017-09-28T08:02:28.698Z,17.06
2017-09-28T08:03:28.726Z,17.22
2017-09-28T08:04:29.070Z,17.3
2017-09-28T08:05:29.096Z,17.38
2017-09-28T08:06:43.714Z,17.58
2017-09-28T08:07:28.514Z,17.74
2017-09-28T08:08:29.174Z,17.97
2017-09-28T08:09:29.199Z,17.96
2017-09-28T08:10:29.227Z,18.05
2017-09-28T08:11:29.256Z,18.1
2017-09-28T08:12:29.278Z,17.95
2017-09-28T08:13:28.987Z,17.71
2017-09-28T08:14:29.329Z,17.51
2017-09-28T08:15:29.359Z,17.43
2017-09-28T08:16:29.386Z,17.37
2017-09-28T08:17:29.409Z,17.03
2017-09-28T08:18:29.133Z,17.11
2017-09-28T08:19:29.461Z,16.94
2017-09-28T08:20:29.484Z,16.81
2017-09-28T08:21:28.875Z,16.85
2017-09-28T08:22:44.124Z,16.93
2017-09-28T08:23:29.563Z,16.85
2017-09-28T08:24:29.581Z,16.85
2017-09-28T08:25:44.202Z,17.03
2017-09-28T08:26:29.634Z,17.21
2017-09-28T08:27:29.346Z,17.56
2017-09-28T08:28:29.686Z,17.75
2017-09-28T08:29:29.390Z,17.95
2017-09-28T08:30:29.732Z,18.26
2017-09-28T08:31:29.757Z,18.39
2017-09-28T08:32:29.796Z,18.27
2017-09-28T08:33:29.495Z,18.41
2017-09-28T08:34:29.516Z,18.39
2017-09-28T08:35:29.543Z,18.23
2017-09-28T08:36:29.884Z,18.41
2017-09-28T08:37:29.908Z,18.41
2017-09-28T08:38:44.532Z,18.37
2017-09-28T08:39:29.646Z,18.44
2017-09-28T08:40:29.994Z,18.27
2017-09-28T08:41:44.607Z,18.41
2017-09-28T08:42:44.630Z,18.33
2017-09-28T08:43:30.068Z,18.37
2017-09-28T08:45:29.798Z,18.73
2017-09-28T08:46:30.144Z,18.62
2017-09-28T08:47:29.847Z,18.63
2017-09-28T08:48:30.194Z,18.8
2017-09-28T08:49:30.221Z,18.87
2017-09-28T08:50:29.925Z,18.78
2017-09-28T08:51:30.273Z,18.78
2017-09-28T08:52:30.304Z,19.07
2017-09-28T08:53:30.325Z,19.21
2017-09-28T08:54:44.941Z,19.32
2017-09-28T08:55:30.431Z,19.39
2017-09-28T08:56:30.410Z,19.4
2017-09-28T08:57:30.107Z,19.26
2017-09-28T08:58:45.047Z,19.28
2017-09-28T08:59:30.166Z,19.33
2017-09-28T09:00:30.506Z,19.46
2017-09-28T09:02:29.923Z,19.5
2017-09-28T09:03:30.590Z,19.41
2017-09-28T09:04:30.616Z,19.63
2017-09-28T09:05:30.635Z,19.47
2017-09-28T09:06:30.663Z,19.56
2017-09-28T09:07:30.372Z,19.55
2017-09-28T09:08:30.400Z,19.4
2017-09-28T09:09:45.020Z,19.39
2017-09-28T09:10:45.366Z,19.44
2017-09-28T09:11:30.795Z,19.43
2017-09-28T09:12:45.418Z,19.56
2017-09-28T09:13:30.533Z,19.73
2017-09-28T09:16:30.932Z,19.73
2017-09-28T09:17:30.958Z,19.78
2017-09-28T09:18:30.986Z,19.98
2017-09-28T09:19:31.010Z,20.13
2017-09-28T09:20:31.037Z,20.03
2017-09-28T09:21:31.066Z,19.83
2017-09-28T09:22:31.089Z,19.69
2017-09-28T09:23:31.112Z,19.65
2017-09-28T09:24:30.835Z,19.44
2017-09-28T09:25:31.167Z,19.39
2017-09-28T09:26:31.194Z,19.48
2017-09-28T09:27:30.901Z,19.37
2017-09-28T09:28:45.841Z,19.41
2017-09-28T09:29:30.950Z,19.44
2017-09-28T09:30:30.987Z,19.58
2017-09-28T09:31:31.331Z,19.63
2017-09-28T09:33:31.382Z,19.59
2017-09-28T09:34:31.409Z,19.74
2017-09-28T09:35:31.445Z,19.81
2017-09-28T09:36:31.460Z,19.76
2017-09-28T09:37:31.486Z,19.92
2017-09-28T09:38:31.514Z,19.73
2017-09-28T09:39:31.537Z,19.88
2017-09-28T09:40:31.247Z,19.81
2017-09-28T09:41:46.181Z,19.78
2017-09-28T09:42:31.298Z,19.8
2017-09-28T09:43:31.641Z,19.92
2017-09-28T09:44:31.669Z,19.78
2017-09-28T09:45:46.289Z,19.83
2017-09-28T09:47:31.429Z,20.1
2017-09-28T09:48:31.777Z,20.01
2017-09-28T09:49:31.801Z,20.05
2017-09-28T09:51:31.857Z,20.24
2017-09-28T09:52:31.877Z,20.1
2017-09-28T09:53:31.902Z,20.06
2017-09-28T09:55:31.956Z,20.08
2017-09-28T09:57:46.601Z,20.24
2017-09-28T09:58:32.041Z,20.16
2017-09-28T10:00:32.089Z,20.11
2017-09-28T10:01:32.113Z,20.02
2017-09-28T10:02:31.822Z,19.99
2017-09-28T10:03:32.171Z,19.77
2017-09-28T10:04:32.203Z,19.73
2017-09-28T10:05:32.221Z,19.62
2017-09-28T10:07:32.274Z,19.55
2017-09-28T10:08:31.981Z,19.44
2017-09-28T10:09:32.323Z,19.56
2017-09-28T10:10:46.943Z,19.55
2017-09-28T10:12:32.403Z,19.62
2017-09-28T10:14:01.614Z,19.63
2017-09-28T10:14:32.455Z,19.59
2017-09-28T10:15:32.481Z,19.46
2017-09-28T10:16:32.190Z,19.43
2017-09-28T10:17:47.125Z,19.32
2017-09-28T10:18:47.162Z,19.22
2017-09-28T10:20:32.296Z,19.31
2017-09-28T10:21:32.322Z,19.25
2017-09-28T10:22:32.345Z,19.26
2017-09-28T10:23:32.370Z,19.28
2017-09-28T10:24:32.720Z,19.19
2017-09-28T10:25:32.419Z,19.21
2017-09-28T10:26:32.449Z,19.14
2017-09-28T10:27:32.473Z,19.21
2017-09-28T10:28:32.820Z,19.23
2017-09-28T10:29:47.436Z,19.31
2017-09-28T10:30:47.461Z,19.44
2017-09-28T10:31:32.896Z,19.55
2017-09-28T10:32:32.598Z,19.47
2017-09-28T10:33:32.945Z,19.41
2017-09-28T10:34:32.972Z,19.44
2017-09-28T10:35:32.997Z,19.36
2017-09-28T10:36:32.700Z,19.4
2017-09-28T10:37:32.726Z,19.36
2017-09-28T10:38:32.761Z,19.41
2017-09-28T10:39:33.094Z,19.31
2017-09-28T10:40:33.127Z,19.26
2017-09-28T10:41:32.828Z,19.31
2017-09-28T10:42:32.850Z,19.14
2017-09-28T10:43:33.199Z,19.16
2017-09-28T10:44:47.812Z,19.22
2017-09-28T10:45:33.245Z,19.31
2017-09-28T10:46:33.271Z,19.4
2017-09-28T10:47:32.974Z,19.47
2017-09-28T10:49:33.343Z,19.23
2017-09-28T10:50:33.377Z,19.32
2017-09-28T10:51:33.398Z,19.23
2017-09-28T10:52:32.782Z,19.21
2017-09-28T10:53:33.444Z,19.18
2017-09-28T10:54:33.153Z,19.36
2017-09-28T10:55:33.495Z,19.39
2017-09-28T10:56:33.520Z,19.4
2017-09-28T10:57:33.547Z,19.46
2017-09-28T10:58:33.576Z,19.44
2017-09-28T10:59:33.275Z,19.44
2017-09-28T11:00:33.624Z,19.36
2017-09-28T11:01:33.644Z,19.37
2017-09-28T11:02:33.352Z,19.46
2017-09-28T11:03:33.726Z,19.56
2017-09-28T11:04:33.722Z,19.46
2017-09-28T11:05:33.740Z,19.54
2017-09-28T11:06:33.771Z,19.65
2017-09-28T11:07:33.823Z,19.58
2017-09-28T11:08:33.816Z,19.61
2017-09-28T11:09:33.850Z,19.63
2017-09-28T11:10:33.549Z,19.56
2017-09-28T11:11:33.575Z,19.68
2017-09-28T11:12:33.598Z,19.68
2017-09-28T11:13:33.628Z,19.59
2017-09-28T11:14:33.646Z,19.55
2017-09-28T11:15:33.674Z,19.55
2017-09-28T11:16:48.608Z,19.44
2017-09-28T11:17:34.043Z,19.58
2017-09-28T11:18:34.067Z,19.56
2017-09-28T11:20:34.123Z,19.77
2017-09-28T11:21:33.821Z,19.69
2017-09-28T11:22:34.162Z,19.74
2017-09-28T11:25:34.237Z,19.74
2017-09-28T11:26:34.263Z,19.76
2017-09-28T11:27:34.288Z,19.83
2017-09-28T11:28:34.311Z,19.91
2017-09-28T11:29:34.339Z,19.88
2017-09-28T11:30:34.367Z,19.98
2017-09-28T11:31:34.388Z,19.87
2017-09-28T11:32:49.003Z,20.06
2017-09-28T11:34:34.463Z,20.32
2017-09-28T11:35:34.165Z,20.36
2017-09-28T11:36:34.511Z,20.5
2017-09-28T11:37:34.215Z,20.52
2017-09-28T11:38:34.238Z,20.5
2017-09-28T11:39:34.586Z,20.36
2017-09-28T11:40:34.613Z,20.21
2017-09-28T11:41:34.636Z,20.2
2017-09-28T11:42:34.344Z,20.21
2017-09-28T11:43:34.683Z,20.21
2017-09-28T11:44:34.743Z,20.24
2017-09-28T11:45:34.731Z,20.24
2017-09-28T11:46:34.491Z,20.2
2017-09-28T11:47:34.780Z,20.23
2017-09-28T11:48:49.404Z,20.26
2017-09-28T11:49:34.516Z,20.21
2017-09-28T11:50:34.559Z,20.43
2017-09-28T11:51:34.885Z,20.36
2017-09-28T11:53:34.943Z,20.59
2017-09-28T11:56:34.690Z,20.38
2017-09-28T11:57:35.037Z,20.47
2017-09-28T11:58:34.740Z,20.42
2017-09-28T11:59:35.081Z,20.31
2017-09-28T12:00:35.110Z,20.35
2017-09-28T12:01:35.131Z,20.29
2017-09-28T12:02:34.838Z,20.32
2017-09-28T12:03:35.182Z,20.26
2017-09-28T12:04:49.803Z,20.24
2017-09-28T12:06:49.850Z,20.55
2017-09-28T12:07:35.281Z,20.62
2017-09-28T12:08:34.987Z,20.69
2017-09-28T12:09:35.013Z,20.74
2017-09-28T12:10:35.356Z,20.88
2017-09-28T12:11:35.381Z,20.98
2017-09-28T12:12:35.420Z,21.13
2017-09-28T12:13:35.435Z,21.32
2017-09-28T12:14:35.464Z,21.4
2017-09-28T12:15:35.489Z,21.59
2017-09-28T12:16:35.508Z,21.58
2017-09-28T12:17:35.214Z,21.68
2017-09-28T12:18:35.554Z,21.74
2017-09-28T12:19:50.174Z,21.75
2017-09-28T12:20:35.608Z,21.59
2017-09-28T12:21:35.315Z,21.5
2017-09-28T12:22:35.339Z,21.42
2017-09-28T12:23:35.687Z,21.38
2017-09-28T12:24:35.390Z,21.34
2017-09-28T12:25:35.742Z,21.38
2017-09-28T12:26:35.757Z,21.4
2017-09-28T12:27:35.465Z,21.31
2017-09-28T12:28:35.810Z,21.27
2017-09-28T12:29:35.514Z,21.25
2017-09-28T12:30:35.543Z,21.21
2017-09-28T12:31:35.885Z,21.06
2017-09-28T12:32:35.592Z,21.19
2017-09-28T12:33:35.938Z,21.19
2017-09-28T12:34:35.639Z,21.46
2017-09-28T12:35:35.665Z,21.38
2017-09-28T12:36:35.688Z,21.35
2017-09-28T12:37:35.716Z,21.28
2017-09-28T12:38:36.061Z,21.34
2017-09-28T12:39:50.677Z,21.28
2017-09-28T12:40:36.113Z,21.35
2017-09-28T12:42:35.844Z,21.44
2017-09-28T12:44:36.226Z,21.46
2017-09-28T12:45:36.237Z,21.35
2017-09-28T12:46:35.624Z,21.28
2017-09-28T12:47:36.289Z,21.37
2017-09-28T12:48:35.995Z,21.25
2017-09-28T12:49:36.349Z,21.32
2017-09-28T12:50:36.365Z,21.37
2017-09-28T12:51:50.977Z,21.35
2017-09-28T12:52:36.411Z,21.4
2017-09-28T12:53:36.451Z,21.46
2017-09-28T12:54:36.462Z,21.46
2017-09-28T12:55:51.132Z,21.38
2017-09-28T12:56:36.524Z,21.34
2017-09-28T12:57:36.542Z,21.28
2017-09-28T12:59:36.591Z,21.17
2017-09-28T13:00:36.619Z,21.17
2017-09-28T13:01:36.639Z,21.04
2017-09-28T13:02:36.667Z,21.22
2017-09-28T13:03:36.688Z,21.27
2017-09-28T13:04:36.716Z,21.27
2017-09-28T13:05:36.420Z,21.21
2017-09-28T13:06:36.766Z,21.21
2017-09-28T13:07:51.383Z,21.13
2017-09-28T13:08:36.815Z,21.01
2017-09-28T13:09:36.842Z,21.12
2017-09-28T13:10:36.864Z,21.09
2017-09-28T13:11:36.568Z,21.12
2017-09-28T13:12:36.916Z,21.22
2017-09-28T13:13:36.940Z,21.34
2017-09-28T13:14:36.972Z,21.42
2017-09-28T13:15:36.988Z,21.37
2017-09-28T13:16:37.022Z,21.42
2017-09-28T13:17:37.074Z,21.5
2017-09-28T13:18:37.066Z,21.54
2017-09-28T13:19:37.092Z,21.47
2017-09-28T13:20:36.848Z,21.47
2017-09-28T13:22:37.165Z,21.35
2017-09-28T13:23:51.782Z,21.42
2017-09-28T13:24:37.240Z,21.38
2017-09-28T13:26:37.271Z,21.43
2017-09-28T13:27:37.318Z,21.38
2017-09-28T13:28:37.320Z,21.34
2017-09-28T13:29:37.341Z,21.32
2017-09-28T13:30:37.048Z,21.44
2017-09-28T13:31:37.391Z,21.32
2017-09-28T13:32:37.420Z,21.34
2017-09-28T13:33:37.127Z,21.31
2017-09-28T13:34:37.148Z,21.37
2017-09-28T13:35:37.173Z,21.4
2017-09-28T13:36:37.517Z,21.44
2017-09-28T13:37:37.596Z,21.49
2017-09-28T13:38:37.569Z,21.46
2017-09-28T13:39:52.188Z,21.4
2017-09-28T13:40:37.615Z,21.34
2017-09-28T13:41:37.651Z,21.37
2017-09-28T13:42:37.664Z,21.44
2017-09-28T13:43:52.285Z,21.31
2017-09-28T13:44:37.735Z,21.27
2017-09-28T13:45:37.743Z,21.19
2017-09-28T13:46:37.775Z,21.01
2017-09-28T13:47:37.475Z,21.07
2017-09-28T13:48:37.816Z,20.97
2017-09-28T13:49:37.577Z,20.79